Time;durP1;ratioP1;P1;durP2;ratioP2;P2;SDS_P1;SDS_P2;PMS_P1;PMS_P2;Temp;Humidity;BMP_temperature;BMP_pressure;BME280_temperature;BME280_humidity;BME280_pressure;Samples;Min_cycle;Max_cycle;Signal;HPM_P1;HPM_P2
2022/01/17 00:01:28;;;;;;;7.18;2.47;;;14.90;51.40;13.90;102365.00;;;;5026475;28;20092;-71
2022/01/17 00:04:12;;;;;;;5.63;1.83;;;14.90;51.30;13.90;102357.00;;;;5029891;28;20048;-71
2022/01/17 00:06:57;;;;;;;3.50;1.60;;;14.80;51.20;13.90;102348.00;;;;5027956;28;20470;-71
2022/01/17 00:09:42;;;;;;;4.93;1.95;;;14.80;51.20;13.90;102341.00;;;;5029617;28;20043;-71
2022/01/17 00:12:27;;;;;;;5.13;1.63;;;14.80;51.20;13.90;102358.00;;;;5033037;28;20498;-71
2022/01/17 00:15:21;;;;;;;4.22;1.45;;;14.80;51.20;13.90;102358.00;;;;5021876;28;20068;-71
2022/01/17 00:20:56;;;;;;;3.50;1.45;;;14.90;51.10;13.90;102373.00;;;;5040629;28;20044;-71
2022/01/17 00:23:40;;;;;;;4.47;1.70;;;14.80;51.10;13.90;102399.00;;;;5028402;28;20137;-71
2022/01/17 00:26:25;;;;;;;2.95;1.15;;;14.80;51.10;13.90;102388.00;;;;5031962;28;20073;-71
2022/01/17 00:29:09;;;;;;;4.85;1.35;;;14.80;51.00;13.90;102400.00;;;;5038466;28;20044;-71
2022/01/17 00:31:54;;;;;;;3.63;1.00;;;14.80;51.00;13.90;102401.00;;;;5031896;28;20071;-71
2022/01/17 00:34:39;;;;;;;4.25;1.45;;;14.80;51.00;13.90;102414.00;;;;5037206;28;20453;-71
2022/01/17 00:37:23;;;;;;;4.60;1.02;;;14.80;51.00;13.90;102395.00;;;;5025816;28;20073;-71
2022/01/17 00:40:09;;;;;;;4.20;1.10;;;14.80;51.00;13.90;102407.00;;;;5027669;28;20052;-71
2022/01/17 00:42:54;;;;;;;3.95;0.98;;;14.80;51.00;13.90;102393.00;;;;5001278;28;20043;-71
2022/01/17 00:45:40;;;;;;;2.50;0.88;;;14.80;51.00;13.90;102390.00;;;;5032675;28;20072;-71
2022/01/17 00:48:25;;;;;;;2.83;0.85;;;14.80;51.00;13.90;102387.00;;;;5027495;28;20056;-71
2022/01/17 00:51:09;;;;;;;4.95;0.93;;;14.80;51.00;13.90;102393.00;;;;5027319;28;20482;-71
2022/01/17 00:53:54;;;;;;;4.28;1.23;;;14.80;51.00;13.90;102377.00;;;;5036620;28;20502;-71
2022/01/17 00:56:38;;;;;;;3.00;0.93;;;14.80;51.00;13.90;102382.00;;;;5030589;28;20052;-71
2022/01/17 00:59:23;;;;;;;4.72;0.90;;;14.80;51.00;13.90;102384.00;;;;5030488;28;20438;-71
2022/01/17 01:02:07;;;;;;;1.40;0.90;;;14.80;51.00;13.90;102395.00;;;;5030093;28;20091;-71
2022/01/17 01:04:52;;;;;;;4.63;1.02;;;14.80;51.00;13.90;102403.00;;;;5030707;28;20067;-71
2022/01/17 01:07:36;;;;;;;4.25;0.80;;;14.80;51.00;13.90;102400.00;;;;5029902;28;20196;-71
2022/01/17 01:10:21;;;;;;;2.88;0.80;;;14.80;51.00;13.90;102392.00;;;;5037147;28;20078;-71
2022/01/17 01:13:05;;;;;;;4.32;0.68;;;14.80;51.00;13.90;102395.00;;;;5010601;28;20045;-71
2022/01/17 01:27:54;;;;;;;5.40;1.08;;;14.70;50.90;13.90;102390.00;;;;5026777;28;20091;-71
2022/01/17 01:30:42;;;;;;;8.02;1.00;;;14.70;50.80;13.80;102388.00;;;;5023554;28;20048;-71
2022/01/17 01:33:32;;;;;;;1.75;0.63;;;14.70;50.80;13.80;102393.00;;;;5025662;28;20056;-71
2022/01/17 01:36:23;;;;;;;3.72;0.80;;;14.70;50.80;13.80;102381.00;;;;5033745;28;20079;-71
2022/01/17 01:39:08;;;;;;;5.28;1.10;;;14.80;50.90;13.80;102384.00;;;;5031024;28;20565;-71
2022/01/17 01:41:52;;;;;;;3.28;0.82;;;14.70;50.80;13.80;102386.00;;;;5027989;28;20061;-71
2022/01/17 01:44:37;;;;;;;4.55;0.88;;;14.70;50.80;13.80;102401.00;;;;5027361;28;20035;-71
2022/01/17 01:47:23;;;;;;;4.90;0.80;;;14.70;50.80;13.80;102411.00;;;;5024321;28;20117;-71
2022/01/17 01:50:10;;;;;;;6.50;0.98;;;14.70;50.80;13.80;102404.00;;;;5024191;28;20717;-71
2022/01/17 01:52:55;;;;;;;3.78;0.80;;;14.70;50.70;13.80;102405.00;;;;5031124;28;20043;-71
2022/01/17 01:55:39;;;;;;;6.38;1.20;;;14.70;50.70;13.80;102409.00;;;;5027964;28;20446;-71
2022/01/17 01:58:24;;;;;;;4.68;0.70;;;14.70;50.70;13.80;102408.00;;;;5028245;28;20099;-71
2022/01/17 02:01:09;;;;;;;6.57;1.13;;;14.70;50.70;13.80;102399.00;;;;5032487;28;20086;-71
2022/01/17 02:03:53;;;;;;;3.35;0.85;;;14.70;50.50;13.80;102402.00;;;;5022488;28;20095;-71
2022/01/17 02:06:38;;;;;;;3.38;0.82;;;14.70;50.50;13.80;102408.00;;;;5032900;28;20171;-71
2022/01/17 02:09:26;;;;;;;5.10;1.20;;;14.70;50.50;13.80;102401.00;;;;5027978;28;20044;-71
2022/01/17 02:12:10;;;;;;;7.15;1.30;;;14.70;50.50;13.80;102402.00;;;;5030981;28;20060;-71
2022/01/17 02:14:56;;;;;;;4.07;1.38;;;14.70;50.40;13.80;102395.00;;;;5013351;28;20087;-71
2022/01/17 02:17:45;;;;;;;2.53;0.50;;;14.70;50.30;13.80;102411.00;;;;5015837;28;20100;-71
2022/01/17 02:23:39;;;;;;;4.20;0.77;;;14.70;50.30;13.80;102416.00;;;;5023578;28;20045;-71
2022/01/17 02:26:24;;;;;;;2.88;0.70;;;14.70;50.20;13.80;102408.00;;;;5031578;28;20048;-71
2022/01/17 02:29:08;;;;;;;3.08;0.80;;;14.70;50.20;13.80;102408.00;;;;5012230;28;20099;-71
2022/01/17 02:31:53;;;;;;;2.80;0.65;;;14.70;50.20;13.80;102404.00;;;;5026923;28;20049;-71
2022/01/17 02:34:43;;;;;;;4.50;0.90;;;14.70;50.10;13.80;102402.00;;;;5033290;28;20044;-71
2022/01/17 02:37:28;;;;;;;3.85;0.82;;;14.70;50.10;13.80;102394.00;;;;5027957;28;20045;-71
2022/01/17 02:40:14;;;;;;;4.70;1.00;;;14.70;50.10;13.80;102392.00;;;;4995177;28;20133;-71
2022/01/17 02:43:03;;;;;;;6.32;1.00;;;14.70;50.00;13.80;102381.00;;;;5026329;28;20461;-71
2022/01/17 02:48:38;;;;;;;3.28;0.70;;;14.70;49.90;13.70;102360.00;;;;5035558;28;20036;-71
2022/01/17 02:51:23;;;;;;;8.20;1.27;;;14.70;49.80;13.70;102372.00;;;;5032212;28;20468;-71
2022/01/17 02:54:07;;;;;;;6.63;1.30;;;14.70;49.80;13.70;102375.00;;;;5021006;28;20291;-71
2022/01/17 02:56:52;;;;;;;6.18;0.80;;;14.60;49.70;13.70;102372.00;;;;5032940;28;20593;-71
2022/01/17 02:59:37;;;;;;;5.80;1.10;;;14.60;49.70;13.70;102390.00;;;;5036644;28;20082;-71
2022/01/17 03:02:21;;;;;;;6.05;1.00;;;14.60;49.70;13.70;102399.00;;;;5027065;28;20173;-71
2022/01/17 03:05:09;;;;;;;3.83;0.73;;;14.60;49.70;13.70;102403.00;;;;5028730;28;20031;-71
2022/01/17 03:07:54;;;;;;;4.75;1.00;;;14.60;49.70;13.70;102417.00;;;;5031313;28;20052;-71
2022/01/17 03:10:43;;;;;;;4.72;0.77;;;14.60;49.60;13.70;102424.00;;;;5030683;28;20348;-71
2022/01/17 03:13:33;;;;;;;3.45;0.65;;;14.60;49.70;13.70;102430.00;;;;5005424;28;20073;-71
2022/01/17 03:16:19;;;;;;;4.05;0.90;;;14.60;49.70;13.70;102428.00;;;;5026516;28;20052;-71
2022/01/17 03:19:04;;;;;;;6.18;1.05;;;14.60;49.60;13.70;102420.00;;;;5025802;28;20043;-71
2022/01/17 03:21:48;;;;;;;3.65;0.82;;;14.60;49.60;13.70;102403.00;;;;5030462;28;20048;-71
2022/01/17 03:24:33;;;;;;;4.28;0.80;;;14.60;49.60;13.70;102411.00;;;;5034136;28;20128;-71
2022/01/17 03:27:18;;;;;;;3.35;1.05;;;14.60;49.60;13.70;102402.00;;;;5025227;28;20073;-71
2022/01/17 03:30:04;;;;;;;4.13;0.80;;;14.60;49.60;13.70;102399.00;;;;5029526;28;20052;-71
2022/01/17 03:32:49;;;;;;;5.60;1.13;;;14.60;49.50;13.70;102400.00;;;;5033620;28;20057;-71
2022/01/17 03:35:36;;;;;;;7.28;1.65;;;14.60;49.50;13.70;102388.00;;;;5031418;28;20053;-71
2022/01/17 03:38:24;;;;;;;3.85;0.68;;;14.30;49.30;13.70;102375.00;;;;5013827;28;20056;-71
2022/01/17 03:41:08;;;;;;;4.22;0.98;;;14.60;49.40;13.70;102390.00;;;;5031926;28;20480;-71
2022/01/17 03:43:53;;;;;;;3.55;0.93;;;14.60;49.40;13.70;102395.00;;;;5031507;28;20103;-71
2022/01/17 03:46:37;;;;;;;4.80;1.00;;;14.60;49.40;13.70;102384.00;;;;5023516;28;20065;-71
2022/01/17 03:49:22;;;;;;;3.67;0.80;;;14.60;49.30;13.70;102390.00;;;;5028641;28;20097;-71
2022/01/17 03:52:06;;;;;;;3.75;0.90;;;14.60;49.30;13.70;102382.00;;;;5026818;28;20047;-71
2022/01/17 03:54:51;;;;;;;7.78;1.20;;;14.70;49.30;13.70;102394.00;;;;5029320;28;20053;-71
2022/01/17 03:57:35;;;;;;;6.70;1.20;;;14.60;49.10;13.70;102393.00;;;;5034908;28;20091;-71
2022/01/17 04:00:30;;;;;;;4.95;0.95;;;14.60;49.20;13.70;102407.00;;;;5008479;28;20064;-71
2022/01/17 04:03:14;;;;;;;7.65;1.30;;;14.60;49.20;13.70;102399.00;;;;5029335;28;20107;-71
2022/01/17 04:05:58;;;;;;;5.68;1.23;;;14.60;49.20;13.70;102410.00;;;;5033055;28;20523;-71
2022/01/17 04:08:43;;;;;;;6.78;1.20;;;14.60;49.20;13.70;102404.00;;;;5033410;28;20448;-71
2022/01/17 04:11:27;;;;;;;5.03;0.77;;;14.60;49.10;13.70;102400.00;;;;5033961;28;20514;-71
2022/01/17 04:14:12;;;;;;;3.47;0.93;;;14.60;49.10;13.70;102398.00;;;;5039617;28;20615;-71
2022/01/17 04:16:56;;;;;;;5.20;0.93;;;14.60;49.10;13.70;102393.00;;;;5030542;28;20421;-71
2022/01/17 04:19:42;;;;;;;5.38;1.23;;;14.60;49.10;13.70;102399.00;;;;5034494;28;20108;-71
2022/01/17 04:22:26;;;;;;;8.00;1.00;;;14.60;49.10;13.70;102408.00;;;;5027053;28;20041;-71
2022/01/17 04:25:11;;;;;;;3.05;0.80;;;14.60;49.10;13.70;102412.00;;;;5028887;28;20087;-71
2022/01/17 04:27:56;;;;;;;7.78;1.15;;;14.60;49.00;13.70;102409.00;;;;5039731;28;20532;-71
2022/01/17 04:30:42;;;;;;;6.35;1.20;;;14.60;48.90;13.70;102400.00;;;;5035497;28;20056;-71
2022/01/17 04:33:26;;;;;;;7.65;0.95;;;14.60;49.60;13.70;102417.00;;;;5009922;28;20056;-71
2022/01/17 04:36:11;;;;;;;5.70;1.10;;;14.60;48.90;13.70;102412.00;;;;5028397;28;20106;-71
2022/01/17 04:38:55;;;;;;;6.28;0.80;;;14.60;48.80;13.80;102431.00;;;;5030896;28;20044;-71
2022/01/17 04:41:40;;;;;;;6.50;0.95;;;14.60;48.70;13.80;102436.00;;;;5031209;28;20056;-71
2022/01/17 04:47:43;;;;;;;4.30;1.23;;;14.60;48.70;13.80;102450.00;;;;5036405;28;20510;-71
2022/01/17 04:50:28;;;;;;;5.15;1.10;;;14.70;48.70;13.80;102450.00;;;;5029637;28;20051;-71
2022/01/17 04:53:16;;;;;;;6.15;0.90;;;14.70;48.60;13.80;102456.00;;;;5031193;28;20134;-71
2022/01/17 04:56:01;;;;;;;5.82;1.00;;;14.70;48.70;13.80;102459.00;;;;5035757;28;20048;-71
2022/01/17 04:58:46;;;;;;;7.40;1.60;;;14.70;48.60;13.80;102456.00;;;;5031059;28;20095;-71
2022/01/17 05:01:31;;;;;;;6.20;1.17;;;14.70;48.60;13.80;102453.00;;;;5032345;28;20482;-71
2022/01/17 05:04:15;;;;;;;6.90;1.05;;;14.80;49.40;13.80;102441.00;;;;5038828;28;20452;-71
2022/01/17 05:06:59;;;;;;;7.50;1.10;;;14.70;48.40;13.80;102447.00;;;;5028259;28;20072;-71
2022/01/17 05:09:45;;;;;;;5.57;1.13;;;14.70;48.50;13.80;102451.00;;;;5039950;28;20334;-71
2022/01/17 05:12:30;;;;;;;6.15;1.13;;;14.70;48.60;13.80;102448.00;;;;5028574;28;20444;-71
2022/01/17 05:15:53;;;;;;;6.03;1.00;;;14.70;48.50;13.80;102434.00;;;;5026674;28;20057;-71
2022/01/17 05:21:16;;;;;;;8.60;1.67;;;14.70;48.40;13.80;102439.00;;;;5032124;28;20053;-71
2022/01/17 05:24:01;;;;;;;7.07;1.27;;;14.70;48.30;13.80;102446.00;;;;5026498;28;20047;-71
2022/01/17 05:26:45;;;;;;;7.35;1.50;;;14.80;48.40;13.80;102448.00;;;;5028904;28;20434;-71
2022/01/17 05:29:30;;;;;;;6.72;1.13;;;14.70;48.40;13.80;102449.00;;;;5034603;28;20581;-71
2022/01/17 05:32:14;;;;;;;3.10;0.75;;;14.70;48.40;13.80;102453.00;;;;5024818;28;20095;-71
2022/01/17 05:34:59;;;;;;;4.95;0.90;;;14.70;48.40;13.80;102438.00;;;;5027936;28;20045;-71
2022/01/17 05:37:44;;;;;;;4.80;0.90;;;14.70;48.40;13.80;102439.00;;;;5031079;28;20044;-71
2022/01/17 05:40:28;;;;;;;6.07;1.35;;;14.80;48.30;13.80;102446.00;;;;5007704;28;20044;-71
2022/01/17 05:43:12;;;;;;;9.70;1.63;;;14.70;48.30;13.80;102430.00;;;;5026340;28;20045;-71
2022/01/17 05:45:56;;;;;;;8.63;1.67;;;14.70;48.20;13.80;102425.00;;;;5034401;28;20044;-71
2022/01/17 05:48:41;;;;;;;5.00;1.13;;;14.70;48.40;13.80;102416.00;;;;5023429;28;20044;-71
2022/01/17 05:51:25;;;;;;;6.70;1.10;;;14.70;48.40;13.80;102406.00;;;;5033466;28;20048;-71
2022/01/17 05:54:10;;;;;;;6.00;1.38;;;14.70;48.30;13.80;102395.00;;;;5037038;28;20128;-71
2022/01/17 05:56:54;;;;;;;4.97;1.15;;;14.70;48.10;13.80;102398.00;;;;5025676;28;20071;-71
2022/01/17 05:59:40;;;;;;;5.85;1.05;;;14.70;48.10;13.80;102396.00;;;;5029373;28;20274;-71
2022/01/17 06:02:24;;;;;;;6.60;1.10;;;14.70;48.00;13.80;102401.00;;;;5033202;28;20060;-71
2022/01/17 06:05:09;;;;;;;9.85;2.13;;;14.70;48.00;13.80;102398.00;;;;5029463;28;20541;-71
2022/01/17 06:07:53;;;;;;;5.65;1.00;;;14.70;48.10;13.80;102399.00;;;;5025131;28;20057;-71
2022/01/17 06:10:38;;;;;;;8.88;1.50;;;14.70;48.00;13.80;102403.00;;;;5029324;28;20067;-71
2022/01/17 06:13:22;;;;;;;7.95;2.10;;;14.70;48.10;13.80;102401.00;;;;5023442;28;20079;-71
2022/01/17 06:16:07;;;;;;;5.70;1.48;;;14.80;48.10;13.80;102391.00;;;;5019492;28;20052;-71
2022/01/17 06:18:51;;;;;;;9.35;2.03;;;14.70;47.90;13.80;102390.00;;;;5032521;28;20044;-71
2022/01/17 06:21:36;;;;;;;5.07;1.27;;;14.70;48.00;13.80;102400.00;;;;5024586;28;20072;-71
2022/01/17 06:24:20;;;;;;;7.60;1.58;;;14.70;47.90;13.80;102383.00;;;;5027085;28;20044;-71
2022/01/17 06:27:05;;;;;;;7.30;1.73;;;14.70;47.90;13.80;102370.00;;;;5027980;28;20049;-71
2022/01/17 06:29:51;;;;;;;6.45;1.45;;;14.70;48.00;13.80;102381.00;;;;5021962;28;20076;-71
2022/01/17 06:32:36;;;;;;;7.32;1.63;;;14.70;47.90;13.80;102384.00;;;;5025238;28;20525;-71
2022/01/17 06:35:20;;;;;;;7.10;1.45;;;14.70;47.90;13.80;102397.00;;;;5022816;28;20080;-71
2022/01/17 06:38:05;;;;;;;8.10;1.60;;;14.70;48.00;13.80;102387.00;;;;5020392;28;20041;-71
2022/01/17 06:40:49;;;;;;;7.85;1.48;;;14.70;48.10;13.80;102388.00;;;;5025273;28;20548;-71
2022/01/17 06:43:34;;;;;;;5.82;1.10;;;14.70;48.10;13.80;102388.00;;;;5020790;28;20057;-71
2022/01/17 06:46:18;;;;;;;4.70;1.25;;;14.70;48.10;13.80;102366.00;;;;5021158;28;20076;-71
2022/01/17 06:49:03;;;;;;;8.32;1.80;;;14.70;48.10;13.80;102358.00;;;;5024973;28;20056;-71
2022/01/17 06:51:47;;;;;;;6.90;1.50;;;14.70;48.10;13.80;102358.00;;;;5013467;28;20045;-71
2022/01/17 06:54:32;;;;;;;6.43;1.00;;;14.70;48.20;13.80;102390.00;;;;5028055;28;20582;-71
2022/01/17 06:57:16;;;;;;;7.93;1.25;;;14.70;48.20;13.80;102403.00;;;;5028886;28;20049;-71
2022/01/17 07:00:00;;;;;;;4.82;1.35;;;14.70;48.20;13.80;102415.00;;;;5028200;28;20067;-71
2022/01/17 07:02:45;;;;;;;9.13;1.35;;;14.70;48.30;13.80;102434.00;;;;5030402;28;20489;-71
2022/01/17 07:05:30;;;;;;;9.75;1.60;;;14.70;48.30;13.80;102442.00;;;;5010168;28;20451;-71
2022/01/17 07:08:14;;;;;;;5.80;1.00;;;14.70;48.40;13.80;102481.00;;;;5016364;28;20392;-70
2022/01/17 07:10:59;;;;;;;6.75;1.30;;;14.70;48.40;13.80;102497.00;;;;5025003;28;20072;-70
2022/01/17 07:13:43;;;;;;;9.27;1.63;;;14.70;48.40;13.80;102485.00;;;;5029860;28;20662;-70
2022/01/17 07:16:28;;;;;;;5.25;1.30;;;14.70;48.40;13.80;102466.00;;;;5024673;28;20429;-70
2022/01/17 07:19:12;;;;;;;6.97;1.40;;;14.70;48.50;13.80;102446.00;;;;5026757;28;20152;-70
2022/01/17 07:21:57;;;;;;;6.47;1.50;;;14.60;48.40;13.80;102460.00;;;;5026530;28;20078;-70
2022/01/17 07:24:44;;;;;;;7.40;2.13;;;14.70;48.50;13.80;102452.00;;;;5029900;28;20048;-70
2022/01/17 07:27:29;;;;;;;7.90;1.70;;;14.70;48.50;13.80;102441.00;;;;5033824;28;20041;-70
2022/01/17 07:30:13;;;;;;;7.93;1.45;;;14.70;48.50;13.80;102449.00;;;;5030002;28;20106;-70
2022/01/17 07:32:58;;;;;;;3.13;1.20;;;14.70;48.50;13.80;102459.00;;;;5034160;28;20113;-70
2022/01/17 07:35:45;;;;;;;8.35;1.52;;;14.70;48.50;13.80;102460.00;;;;5030841;28;20056;-70
2022/01/17 07:38:30;;;;;;;6.70;1.67;;;14.70;48.60;13.80;102469.00;;;;5034408;28;20102;-70
2022/01/17 07:41:14;;;;;;;6.13;1.48;;;14.70;48.60;13.80;102460.00;;;;5030527;28;20125;-70
2022/01/17 07:44:01;;;;;;;7.68;1.70;;;14.70;48.60;13.80;102473.00;;;;5027735;28;20048;-70
2022/01/17 07:47:05;;;;;;;5.97;2.03;;;14.70;48.60;13.80;102476.00;;;;5031357;28;20498;-70
2022/01/17 07:49:50;;;;;;;8.15;2.20;;;14.70;48.60;13.80;102492.00;;;;5036586;28;20111;-70
2022/01/17 07:52:35;;;;;;;7.47;1.88;;;14.70;48.60;13.80;102491.00;;;;5009281;28;20049;-70
2022/01/17 07:55:20;;;;;;;8.30;2.38;;;14.70;48.70;13.80;102482.00;;;;5010233;28;20047;-70
2022/01/17 07:58:04;;;;;;;6.90;2.10;;;14.70;48.80;13.80;102484.00;;;;5014115;28;20078;-70
2022/01/17 08:00:49;;;;;;;8.50;1.90;;;14.70;48.70;13.80;102476.00;;;;5036015;28;20053;-70
2022/01/17 08:03:33;;;;;;;7.60;2.03;;;14.70;48.80;13.80;102478.00;;;;5032239;28;20394;-70
2022/01/17 08:06:18;;;;;;;5.80;1.83;;;14.70;48.80;13.80;102494.00;;;;5027636;28;20068;-71
2022/01/17 08:09:20;;;;;;;7.63;1.65;;;14.70;48.90;13.80;102492.00;;;;5030729;28;20087;-71
2022/01/17 08:12:06;;;;;;;8.88;2.53;;;14.70;48.90;13.80;102483.00;;;;5032484;28;20121;-71
2022/01/17 08:14:50;;;;;;;5.00;2.20;;;14.70;49.00;13.80;102489.00;;;;5019291;28;20052;-71
2022/01/17 08:17:35;;;;;;;9.18;2.33;;;14.70;49.00;13.80;102479.00;;;;5029234;28;20086;-71
2022/01/17 08:20:20;;;;;;;7.28;2.20;;;14.70;49.00;13.80;102469.00;;;;5013045;28;20099;-71
2022/01/17 08:23:04;;;;;;;8.27;2.50;;;14.70;49.10;13.80;102467.00;;;;5028469;28;20040;-71
2022/01/17 08:25:48;;;;;;;7.40;1.92;;;14.80;49.20;13.80;102475.00;;;;5031721;28;20056;-70
2022/01/17 08:28:33;;;;;;;8.30;2.67;;;14.70;49.10;13.80;102472.00;;;;5034470;28;20044;-70
2022/01/17 08:31:17;;;;;;;7.25;2.70;;;14.70;49.20;13.80;102482.00;;;;5026687;28;20095;-71
2022/01/17 08:34:02;;;;;;;6.40;1.90;;;14.80;49.30;13.80;102493.00;;;;5030773;28;20150;-71
2022/01/17 08:36:46;;;;;;;8.40;2.35;;;14.80;50.10;13.80;102483.00;;;;5041920;28;20056;-70
2022/01/17 08:39:31;;;;;;;6.05;2.35;;;14.80;49.40;13.80;102484.00;;;;5026773;28;20136;-71
2022/01/17 08:42:16;;;;;;;8.63;2.72;;;14.80;49.40;13.80;102472.00;;;;5012911;28;20203;-71
2022/01/17 08:45:00;;;;;;;6.22;1.95;;;14.80;49.50;13.80;102481.00;;;;5026353;28;20122;-70
2022/01/17 08:47:49;;;;;;;7.20;1.95;;;14.80;49.50;13.80;102477.00;;;;5024989;28;20045;-70
2022/01/17 08:50:33;;;;;;;9.05;2.20;;;14.80;49.50;13.80;102491.00;;;;5033204;28;20070;-70
2022/01/17 08:53:18;;;;;;;6.78;1.90;;;14.80;49.50;13.80;102499.00;;;;5030586;28;20353;-70
2022/01/17 08:56:03;;;;;;;5.43;2.00;;;14.80;49.60;13.80;102502.00;;;;5024861;28;20052;-70
2022/01/17 08:58:48;;;;;;;5.18;2.10;;;14.80;49.60;13.80;102495.00;;;;5033503;28;20092;-70
2022/01/17 09:01:32;;;;;;;6.30;2.30;;;14.80;49.70;13.80;102503.00;;;;5032696;28;20111;-70
2022/01/17 09:04:17;;;;;;;4.75;2.00;;;14.80;49.70;13.90;102509.00;;;;5028517;28;20047;-70
2022/01/17 09:07:01;;;;;;;4.65;2.05;;;14.80;49.80;13.90;102507.00;;;;5023731;28;20446;-70
2022/01/17 09:09:46;;;;;;;6.65;1.95;;;14.80;49.80;13.90;102504.00;;;;5043506;28;20505;-71
2022/01/17 09:12:31;;;;;;;6.53;2.33;;;14.80;49.90;13.90;102514.00;;;;5021292;28;20045;-70
2022/01/17 09:15:15;;;;;;;7.18;2.13;;;14.80;49.90;13.90;102520.00;;;;5031584;28;20502;-71
2022/01/17 09:18:00;;;;;;;5.90;2.00;;;14.80;50.00;13.90;102515.00;;;;5029909;28;20037;-70
2022/01/17 09:20:44;;;;;;;8.00;2.30;;;14.80;50.70;13.90;102523.00;;;;5028035;28;20076;-70
2022/01/17 09:23:29;;;;;;;9.13;2.30;;;14.80;50.00;13.90;102517.00;;;;5032894;28;20505;-70
2022/01/17 09:26:13;;;;;;;5.35;2.08;;;14.80;50.10;13.90;102523.00;;;;5027467;28;20461;-70
2022/01/17 09:28:58;;;;;;;4.72;2.05;;;14.80;50.10;13.90;102521.00;;;;5034417;28;20106;-70
2022/01/17 09:31:42;;;;;;;5.68;2.03;;;14.90;50.10;13.90;102518.00;;;;5028177;28;20110;-70
2022/01/17 09:34:27;;;;;;;7.32;2.55;;;14.90;50.10;13.90;102520.00;;;;5018082;28;20048;-71
2022/01/17 09:37:11;;;;;;;5.20;1.63;;;14.90;50.10;13.90;102529.00;;;;5019306;28;20049;-70
2022/01/17 09:39:55;;;;;;;7.85;2.10;;;14.90;50.20;13.90;102531.00;;;;5031555;28;20505;-70
2022/01/17 09:42:40;;;;;;;4.50;2.30;;;14.90;50.20;13.90;102545.00;;;;5027209;28;20383;-70
2022/01/17 09:45:25;;;;;;;5.97;2.00;;;14.90;50.20;13.90;102552.00;;;;5028022;28;20132;-70
2022/01/17 09:48:14;;;;;;;9.65;2.58;;;14.90;50.30;13.90;102551.00;;;;5025659;28;20557;-70
2022/01/17 09:51:11;;;;;;;6.07;2.00;;;14.90;50.30;13.90;102563.00;;;;5026510;28;20039;-70
2022/01/17 09:53:55;;;;;;;7.18;2.00;;;14.90;50.30;13.90;102576.00;;;;5002904;28;20043;-70
2022/01/17 09:56:39;;;;;;;6.90;2.20;;;14.90;50.30;13.90;102574.00;;;;5015349;28;20099;-70
2022/01/17 09:59:24;;;;;;;4.50;1.90;;;14.90;50.40;13.90;102571.00;;;;5025194;28;20076;-71
2022/01/17 10:02:11;;;;;;;6.45;1.95;;;14.90;50.40;13.90;102571.00;;;;5008409;28;20144;-71
2022/01/17 10:04:56;;;;;;;7.40;2.13;;;14.90;50.40;13.90;102564.00;;;;5014745;28;20329;-70
2022/01/17 10:08:03;;;;;;;6.75;2.00;;;14.90;50.50;13.90;102566.00;;;;5026109;28;20141;-70
2022/01/17 10:11:04;;;;;;;9.07;2.13;;;14.90;50.90;13.90;102553.00;;;;5028582;28;20133;-70
2022/01/17 10:13:48;;;;;;;6.28;2.17;;;14.90;50.60;13.90;102541.00;;;;5028572;28;20036;-70
2022/01/17 10:16:33;;;;;;;5.32;1.98;;;14.90;50.60;13.90;102542.00;;;;5025335;28;20052;-70
2022/01/17 10:19:17;;;;;;;5.57;2.28;;;15.00;50.70;13.90;102550.00;;;;5027634;28;20056;-70
2022/01/17 10:22:08;;;;;;;11.13;2.13;;;14.90;50.70;13.90;102557.00;;;;4994963;28;20147;-71
2022/01/17 10:25:22;;;;;;;6.82;2.00;;;14.90;50.80;13.90;102566.00;;;;5031318;28;20099;-70
2022/01/17 10:28:57;;;;;;;6.50;1.77;;;14.90;50.90;13.90;102543.00;;;;5026910;28;20040;-70
2022/01/17 10:34:54;;;;;;;5.65;1.85;;;14.90;50.90;13.90;102556.00;;;;5021745;28;20398;-70
2022/01/17 10:37:39;;;;;;;6.18;2.05;;;14.60;50.70;13.90;102556.00;;;;5023453;28;20426;-70
2022/01/17 10:40:23;;;;;;;5.88;2.03;;;14.90;50.90;13.90;102571.00;;;;4995630;28;20068;-70
2022/01/17 10:43:22;;;;;;;3.67;1.63;;;14.90;50.90;13.90;102567.00;;;;5026134;28;20058;-70
2022/01/17 10:46:09;;;;;;;9.40;2.05;;;14.90;51.00;13.90;102576.00;;;;5029126;28;20106;-70
2022/01/17 10:48:56;;;;;;;8.23;1.95;;;14.90;51.00;13.90;102579.00;;;;5012710;28;20047;-70
2022/01/17 10:51:40;;;;;;;8.00;2.28;;;14.90;51.00;13.90;102577.00;;;;5029533;28;20087;-70
2022/01/17 10:54:26;;;;;;;5.45;1.80;;;14.90;51.10;13.90;102583.00;;;;5034265;28;20099;-70
2022/01/17 10:57:11;;;;;;;6.30;2.47;;;14.90;51.20;13.90;102592.00;;;;5013587;28;20398;-70
2022/01/17 10:59:56;;;;;;;6.57;2.15;;;14.90;51.20;13.90;102589.00;;;;5031096;28;20111;-70
2022/01/17 11:02:57;;;;;;;10.32;2.30;;;14.90;51.20;14.00;102592.00;;;;5021129;28;20054;-70
2022/01/17 11:05:47;;;;;;;8.25;2.10;;;14.90;51.20;14.00;102605.00;;;;5031405;28;20517;-70
2022/01/17 11:08:33;;;;;;;6.93;1.88;;;14.90;51.20;14.00;102598.00;;;;5027231;28;20091;-70
2022/01/17 11:11:22;;;;;;;7.97;2.10;;;15.00;51.30;14.00;102593.00;;;;5017190;28;20055;-70
2022/01/17 11:14:09;;;;;;;11.20;2.05;;;14.90;51.30;14.00;102598.00;;;;4998886;28;20048;-70
2022/01/17 11:16:54;;;;;;;9.77;1.95;;;15.00;51.40;14.00;102601.00;;;;5029840;28;20501;-70
2022/01/17 11:22:44;;;;;;;5.93;1.67;;;15.00;51.40;14.00;102595.00;;;;5022681;28;20083;-70
2022/01/17 11:25:34;;;;;;;12.48;2.42;;;15.00;51.40;14.00;102596.00;;;;5030105;28;20204;-70
2022/01/17 11:28:22;;;;;;;8.77;1.80;;;15.00;51.50;14.00;102597.00;;;;5004824;28;20108;-70
2022/01/17 11:31:08;;;;;;;;;;;15.00;51.50;14.00;102589.00;;;;5026583;28;20585;-70
2022/01/17 11:33:53;;;;;;;11.00;2.65;;;15.00;51.20;14.00;102568.00;;;;5033900;28;19920;-70
2022/01/17 11:36:38;;;;;;;9.25;1.88;;;15.00;51.30;14.00;102581.00;;;;5028647;28;20107;-70
2022/01/17 11:39:23;;;;;;;8.73;2.20;;;15.00;51.30;14.00;102567.00;;;;5026037;28;20100;-70
2022/01/17 11:42:26;;;;;;;11.20;2.75;;;15.10;51.40;14.00;102573.00;;;;5025079;28;20419;-70
2022/01/17 11:45:23;;;;;;;9.95;2.30;;;15.00;51.40;14.00;102576.00;;;;5014064;28;20048;-70
2022/01/17 11:48:17;;;;;;;6.05;1.75;;;15.00;51.50;14.10;102593.00;;;;5026479;28;20048;-70
2022/01/17 11:51:12;;;;;;;11.10;2.00;;;15.00;51.40;14.10;102590.00;;;;5022391;28;20111;-70
2022/01/17 11:53:57;;;;;;;10.45;2.30;;;15.10;51.50;14.10;102591.00;;;;5029355;28;20053;-70
2022/01/17 11:57:04;;;;;;;9.52;2.80;;;15.10;51.40;14.10;102602.00;;;;5027144;28;20057;-70
2022/01/17 11:59:50;;;;;;;7.53;2.45;;;15.10;51.60;14.10;102603.00;;;;4998244;28;20508;-70
2022/01/17 12:02:37;;;;;;;10.57;2.30;;;15.10;51.50;14.10;102604.00;;;;5027745;28;20098;-70
2022/01/17 12:05:24;;;;;;;9.82;2.15;;;15.10;52.20;14.10;102599.00;;;;5006982;28;20501;-70
2022/01/17 12:08:09;;;;;;;10.18;2.30;;;15.10;51.60;14.10;102597.00;;;;5024032;28;20103;-70
2022/01/17 12:10:58;;;;;;;13.48;2.65;;;15.10;51.60;14.10;102590.00;;;;5033155;28;20087;-70
2022/01/17 12:13:44;;;;;;;10.82;1.95;;;15.20;51.80;14.10;102592.00;;;;5030957;28;20453;-70
2022/01/17 12:16:34;;;;;;;9.90;2.55;;;15.20;51.80;14.10;102562.00;;;;5006931;28;20608;-70
2022/01/17 12:19:18;;;;;;;14.45;2.55;;;15.10;51.80;14.10;102547.00;;;;5025583;28;20083;-70
2022/01/17 12:22:06;;;;;;;12.60;2.83;;;15.10;51.70;14.10;102533.00;;;;5033505;28;20076;-70
2022/01/17 12:24:51;;;;;;;10.15;2.28;;;15.10;51.80;14.10;102535.00;;;;5036066;28;20117;-70
2022/01/17 12:27:35;;;;;;;11.55;2.15;;;15.20;51.80;14.10;102549.00;;;;5031958;28;20064;-70
2022/01/17 12:30:20;;;;;;;12.15;2.67;;;15.20;51.80;14.20;102569.00;;;;5031218;28;20049;-70
2022/01/17 12:33:04;;;;;;;10.85;2.33;;;15.20;51.80;14.20;102583.00;;;;5034817;28;20405;-70
2022/01/17 12:35:49;;;;;;;11.68;2.30;;;15.20;51.80;14.20;102568.00;;;;5033618;28;20497;-70
2022/01/17 12:38:43;;;;;;;10.63;1.88;;;15.20;51.80;14.20;102585.00;;;;5033162;28;20545;-70
2022/01/17 12:41:32;;;;;;;12.00;2.42;;;15.20;51.80;14.20;102592.00;;;;5030607;28;20565;-70
2022/01/17 12:44:22;;;;;;;10.27;2.10;;;15.20;51.80;14.20;102600.00;;;;5031244;28;20651;-70